Time;durP1;ratioP1;P1;durP2;ratioP2;P2;SDS_P1;SDS_P2;PMS_P1;PMS_P2;Temp;Humidity;BMP_temperature;BMP_pressure;BME280_temperature;BME280_humidity;BME280_pressure;Samples;Min_cycle;Max_cycle;Signal;HPM_P1;HPM_P2
2023/08/27 00:01:46;;;;;;;1.17;1.00;;;;;;;18.09;82.81;100061.41;5037200;28;20239;-79
2023/08/27 00:04:13;;;;;;;1.90;1.43;;;;;;;18.10;82.34;100055.19;5036874;28;20221;-79
2023/08/27 00:06:39;;;;;;;0.90;0.90;;;;;;;18.15;81.93;100071.63;5036549;28;20215;-79
2023/08/27 00:09:07;;;;;;;0.93;0.90;;;;;;;18.13;82.50;100062.94;5036718;28;20209;-80
2023/08/27 00:11:34;;;;;;;3.47;1.20;;;;;;;18.10;82.36;100069.25;5036517;28;20203;-80
2023/08/27 00:14:02;;;;;;;4.23;1.63;;;;;;;18.05;80.94;100098.53;5036656;28;20233;-80
2023/08/27 00:16:29;;;;;;;1.70;0.90;;;;;;;18.11;81.29;100107.09;5036886;28;20213;-80
2023/08/27 00:18:56;;;;;;;1.87;1.37;;;;;;;18.18;82.51;100089.97;5036777;28;20239;-80
2023/08/27 00:21:22;;;;;;;0.97;0.97;;;;;;;18.20;81.98;100067.78;5040643;28;20208;-81
2023/08/27 00:23:49;;;;;;;2.03;1.10;;;;;;;18.24;80.38;100079.03;5039696;28;20209;-80
2023/08/27 00:26:17;;;;;;;2.03;1.10;;;;;;;18.31;81.43;100066.31;5038540;28;20216;-80
2023/08/27 00:28:43;;;;;;;1.80;1.10;;;;;;;18.33;81.68;100069.72;5038512;28;20212;-80
2023/08/27 00:31:10;;;;;;;1.30;1.10;;;;;;;18.32;82.09;100068.88;5036853;28;20220;-80
2023/08/27 00:33:36;;;;;;;1.20;1.10;;;;;;;18.33;81.14;100064.44;5036099;28;20724;-80
2023/08/27 00:36:03;;;;;;;2.13;1.00;;;;;;;18.27;80.92;100089.41;5035775;28;20216;-80
2023/08/27 00:38:29;;;;;;;2.63;1.10;;;;;;;18.28;80.44;100114.09;5035854;28;20263;-80
2023/08/27 00:40:56;;;;;;;9.43;1.10;;;;;;;18.30;79.74;100118.31;5036990;28;20220;-80
2023/08/27 00:43:24;;;;;;;1.87;1.43;;;;;;;18.34;80.86;100109.28;5039430;28;20320;-80
2023/08/27 00:45:51;;;;;;;1.80;1.30;;;;;;;18.28;84.37;100032.16;5038599;28;20207;-80
2023/08/27 00:48:18;;;;;;;2.07;1.27;;;;;;;18.27;85.35;99994.31;5038739;28;20300;-80
2023/08/27 00:50:45;;;;;;;2.87;1.43;;;;;;;18.28;86.43;99953.75;5039267;28;20215;-81
2023/08/27 00:53:12;;;;;;;3.10;1.67;;;;;;;18.24;87.28;99928.44;5039676;28;20235;-80
2023/08/27 00:55:39;;;;;;;2.13;1.50;;;;;;;18.23;87.91;99917.00;5037721;28;20576;-81
2023/08/27 00:58:06;;;;;;;1.90;1.60;;;;;;;18.19;88.30;99902.28;5037185;28;20245;-80
2023/08/27 01:00:34;;;;;;;1.67;1.50;;;;;;;18.15;88.98;99895.47;5037858;28;20211;-80
2023/08/27 01:03:00;;;;;;;1.47;1.20;;;;;;;18.18;89.08;99900.59;5037975;28;20240;-80
2023/08/27 01:05:28;;;;;;;1.47;1.33;;;;;;;18.14;89.72;99891.16;5038147;28;20212;-80
2023/08/27 01:08:00;;;;;;;2.57;1.50;;;;;;;18.11;90.27;99882.56;5039502;28;20213;-79
2023/08/27 01:10:36;;;;;;;5.40;1.77;;;;;;;18.06;90.42;99865.19;5038018;28;20679;-80
2023/08/27 01:13:04;;;;;;;2.00;1.40;;;;;;;18.12;91.10;99848.13;5037622;28;20232;-80
2023/08/27 01:15:32;;;;;;;1.80;1.70;;;;;;;18.06;91.00;99836.13;5037864;28;20205;-80
2023/08/27 01:18:02;;;;;;;2.03;1.33;;;;;;;18.05;90.70;99833.59;5037650;28;20224;-81
2023/08/27 01:20:30;;;;;;;1.97;1.70;;;;;;;18.02;90.28;99831.13;5037758;28;20203;-81
2023/08/27 01:22:58;;;;;;;5.70;2.70;;;;;;;17.99;89.95;99840.06;5037272;28;20233;-81
2023/08/27 01:25:32;;;;;;;2.40;1.57;;;;;;;17.99;90.22;99844.50;5037706;28;20214;-81
2023/08/27 01:28:06;;;;;;;1.60;1.50;;;;;;;17.95;90.73;99835.91;5037103;28;20204;-80
2023/08/27 01:30:41;;;;;;;2.53;1.50;;;;;;;17.92;90.72;99829.97;5037349;28;20210;-80
2023/08/27 01:33:15;;;;;;;3.83;1.77;;;;;;;17.90;90.34;99830.06;5037558;28;20760;-80
2023/08/27 01:35:42;;;;;;;2.00;1.57;;;;;;;17.90;90.93;99829.19;5036923;28;20207;-81
2023/08/27 01:38:10;;;;;;;1.87;1.40;;;;;;;17.90;90.68;99829.19;5036646;28;20228;-80
2023/08/27 01:40:38;;;;;;;4.23;1.80;;;;;;;17.84;90.76;99839.19;5038466;28;20219;-79
2023/08/27 01:43:04;;;;;;;2.00;1.50;;;;;;;17.77;90.73;99848.38;5038940;28;20254;-80
2023/08/27 01:45:31;;;;;;;1.40;1.30;;;;;;;17.74;90.30;99852.97;5039257;28;20207;-79
2023/08/27 01:47:58;;;;;;;1.67;1.57;;;;;;;17.71;90.50;99843.47;5039052;28;20669;-79
2023/08/27 01:50:24;;;;;;;1.60;1.47;;;;;;;17.71;89.33;99859.28;5039998;28;20209;-79
2023/08/27 01:52:51;;;;;;;2.37;1.67;;;;;;;17.67;89.83;99861.25;5034641;28;20228;-80
2023/08/27 01:55:19;;;;;;;1.50;1.40;;;;;;;17.62;90.25;99849.25;5034180;28;20279;-79
2023/08/27 01:57:45;;;;;;;1.90;1.70;;;;;;;17.59;90.51;99849.47;5034370;28;20205;-80
2023/08/27 02:00:16;;;;;;;2.83;1.57;;;;;;;17.57;91.01;99840.78;5034379;28;20218;-80
2023/08/27 02:02:43;;;;;;;1.70;1.60;;;;;;;17.61;90.61;99847.56;5036813;28;20319;-81
2023/08/27 02:05:10;;;;;;;1.60;1.43;;;;;;;17.61;90.58;99844.94;5036642;28;20204;-80
2023/08/27 02:07:38;;;;;;;3.10;1.77;;;;;;;17.64;90.20;99853.53;5035125;28;20219;-80
2023/08/27 02:10:06;;;;;;;1.83;1.70;;;;;;;17.63;90.15;99866.81;5036516;28;20206;-80
2023/08/27 02:12:34;;;;;;;1.87;1.70;;;;;;;17.58;90.15;99869.72;5036512;28;20313;-80
2023/08/27 02:15:02;;;;;;;1.60;1.50;;;;;;;17.56;90.27;99871.59;5034560;28;20220;-80
2023/08/27 02:17:29;;;;;;;2.27;1.50;;;;;;;17.56;90.31;99868.97;5034285;28;20208;-81
2023/08/27 02:19:55;;;;;;;1.77;1.67;;;;;;;17.57;90.03;99862.72;5034160;28;20231;-80
2023/08/27 02:22:22;;;;;;;2.50;1.77;;;;;;;17.58;90.14;99875.00;5033987;28;20222;-79
2023/08/27 02:24:48;;;;;;;2.50;1.50;;;;;;;17.54;90.69;99865.56;5035540;28;20720;-80
2023/08/27 02:27:15;;;;;;;3.10;1.40;;;;;;;17.55;90.83;99869.03;5036683;28;20536;-80
2023/08/27 02:29:43;;;;;;;1.70;1.60;;;;;;;17.56;90.98;99874.25;5036087;28;20213;-80
2023/08/27 02:32:09;;;;;;;1.60;1.50;;;;;;;17.54;91.06;99862.06;5035660;28;20850;-80
2023/08/27 02:34:36;;;;;;;3.00;1.70;;;;;;;17.51;90.82;99854.31;5040348;28;20201;-80
2023/08/27 02:37:02;;;;;;;2.63;1.80;;;;;;;17.53;90.71;99865.66;5056032;28;20211;-80
2023/08/27 02:39:29;;;;;;;1.83;1.50;;;;;;;17.50;91.43;99849.97;5045565;28;20237;-79
2023/08/27 02:41:56;;;;;;;2.13;1.70;;;;;;;17.44;91.77;99835.34;5034247;28;20227;-79
2023/08/27 02:44:22;;;;;;;3.10;1.70;;;;;;;17.46;91.76;99830.81;5034117;28;20214;-80
2023/08/27 02:46:50;;;;;;;1.63;1.53;;;;;;;17.47;92.14;99833.38;5034263;28;20209;-80
2023/08/27 02:49:17;;;;;;;2.00;1.70;;;;;;;17.45;91.88;99831.78;5034077;28;20214;-80
2023/08/27 02:51:43;;;;;;;2.73;2.10;;;;;;;17.43;91.98;99805.47;5032567;28;20232;-80
2023/08/27 02:54:10;;;;;;;3.73;1.80;;;;;;;17.37;92.68;99795.28;5036767;28;20212;-80
2023/08/27 02:56:36;;;;;;;2.93;1.60;;;;;;;17.36;92.83;99787.44;5051772;28;20221;-79
2023/08/27 02:59:04;;;;;;;1.83;1.73;;;;;;;17.34;93.11;99776.97;5052073;28;20218;-79
2023/08/27 03:01:30;;;;;;;3.50;2.07;;;;;;;17.34;92.24;99784.03;5034856;28;20204;-79
2023/08/27 03:03:59;;;;;;;2.77;1.60;;;;;;;17.38;92.21;99775.00;5032880;28;20673;-79
2023/08/27 03:06:25;;;;;;;2.20;2.00;;;;;;;17.36;92.57;99775.13;5050790;28;20251;-80
2023/08/27 03:08:52;;;;;;;3.63;2.67;;;;;;;17.35;92.32;99776.03;5048300;28;20198;-79
2023/08/27 03:11:18;;;;;;;2.60;1.87;;;;;;;17.37;91.72;99784.72;5032148;28;20728;-79
2023/08/27 03:13:45;;;;;;;2.37;1.57;;;;;;;17.38;91.71;99793.47;5038516;28;20238;-80
2023/08/27 03:16:11;;;;;;;3.60;1.70;;;;;;;17.36;91.44;99798.00;5039822;28;20613;-80
2023/08/27 03:18:38;;;;;;;1.93;1.80;;;;;;;17.32;91.89;99792.03;5036376;28;20234;-80
2023/08/27 03:21:06;;;;;;;2.40;1.70;;;;;;;17.34;91.17;99811.25;5035908;28;20229;-80
2023/08/27 03:23:35;;;;;;;1.80;1.70;;;;;;;17.25;91.48;99803.91;5038446;28;20228;-79
2023/08/27 03:26:01;;;;;;;2.00;1.73;;;;;;;17.20;92.67;99788.31;5037061;28;20700;-79
2023/08/27 03:28:28;;;;;;;2.23;2.03;;;;;;;17.23;92.68;99776.75;5036161;28;20572;-80
2023/08/27 03:30:55;;;;;;;1.83;1.67;;;;;;;17.27;92.51;99787.03;5037911;28;20218;-80
2023/08/27 03:33:21;;;;;;;2.63;1.70;;;;;;;17.29;92.46;99796.66;5054723;28;20226;-80
2023/08/27 03:35:56;;;;;;;1.90;1.80;;;;;;;17.26;92.40;99805.56;5052026;28;20207;-80
2023/08/27 03:38:24;;;;;;;2.53;2.33;;;;;;;17.30;92.48;99785.16;5050918;28;20679;-79
2023/08/27 03:40:52;;;;;;;2.17;1.57;;;;;;;17.32;92.08;99778.00;5035623;28;20261;-79
2023/08/27 03:43:18;;;;;;;2.63;1.73;;;;;;;17.31;92.70;99768.41;5035560;28;20645;-79
2023/08/27 03:45:45;;;;;;;1.80;1.70;;;;;;;17.30;92.99;99758.78;5035108;28;20617;-79
2023/08/27 03:48:12;;;;;;;2.23;2.03;;;;;;;17.31;92.89;99761.34;5034951;28;20289;-79
2023/08/27 03:50:39;;;;;;;2.00;1.83;;;;;;;17.31;92.63;99757.84;5034792;28;20206;-80
2023/08/27 03:53:06;;;;;;;2.23;1.87;;;;;;;17.29;93.15;99755.31;5036390;28;20603;-80
2023/08/27 03:55:39;;;;;;;2.53;1.87;;;;;;;17.30;93.42;99748.22;5039529;28;20213;-80
2023/08/27 03:58:06;;;;;;;2.47;1.60;;;;;;;17.32;93.07;99754.25;5037821;28;20207;-79
2023/08/27 04:00:33;;;;;;;3.50;1.70;;;;;;;17.31;93.26;99766.59;5034822;28;20227;-79
2023/08/27 04:03:00;;;;;;;3.37;2.00;;;;;;;17.26;93.68;99764.25;5034711;28;20231;-79
2023/08/27 04:05:26;;;;;;;2.67;1.60;;;;;;;17.26;94.18;99760.72;5035170;28;20207;-79
2023/08/27 04:07:53;;;;;;;2.67;1.60;;;;;;;17.25;94.71;99753.78;5036007;28;20671;-80
2023/08/27 04:10:20;;;;;;;1.80;1.70;;;;;;;17.30;94.26;99759.63;5037003;28;20702;-79
2023/08/27 04:12:48;;;;;;;2.00;1.90;;;;;;;17.32;94.24;99778.00;5034849;28;20226;-80
2023/08/27 04:15:15;;;;;;;2.93;1.90;;;;;;;17.34;93.83;99778.75;5034335;28;20218;-79
2023/08/27 04:17:41;;;;;;;1.90;1.80;;;;;;;17.33;93.98;99796.38;5034621;28;20213;-79
2023/08/27 04:20:09;;;;;;;3.57;2.07;;;;;;;17.27;94.66;99804.66;5034779;28;20719;-80
2023/08/27 04:22:36;;;;;;;3.37;1.80;;;;;;;17.25;94.75;99798.63;5034998;28;20227;-80
2023/08/27 04:25:02;;;;;;;1.70;1.60;;;;;;;17.29;94.58;99789.59;5034812;28;20222;-79
2023/08/27 04:27:29;;;;;;;2.83;2.00;;;;;;;17.26;94.80;99782.72;5034538;28;20252;-80
2023/08/27 04:29:57;;;;;;;1.90;1.80;;;;;;;17.33;94.58;99792.91;5034779;28;20203;-80
2023/08/27 04:32:24;;;;;;;1.63;1.53;;;;;;;17.33;93.78;99791.13;5034228;28;20226;-79
2023/08/27 04:34:50;;;;;;;2.20;1.50;;;;;;;17.32;93.57;99815.78;5034651;28;20208;-80
2023/08/27 04:37:17;;;;;;;1.60;1.50;;;;;;;17.33;93.68;99817.50;5036141;28;20213;-80
2023/08/27 04:39:43;;;;;;;2.13;1.90;;;;;;;17.33;93.77;99812.22;5037262;28;20226;-80
2023/08/27 04:42:10;;;;;;;2.60;1.67;;;;;;;17.30;94.34;99803.63;5037025;28;20228;-79
2023/08/27 04:44:36;;;;;;;3.60;1.87;;;;;;;17.29;94.61;99792.22;5036803;28;20218;-80
2023/08/27 04:47:04;;;;;;;1.73;1.63;;;;;;;17.30;94.61;99782.53;5037316;28;20219;-80
2023/08/27 04:49:31;;;;;;;2.17;1.97;;;;;;;17.31;94.61;99787.72;5036737;28;20206;-80
2023/08/27 04:51:58;;;;;;;3.03;1.90;;;;;;;17.33;94.51;99793.75;5036894;28;20226;-80
2023/08/27 04:54:24;;;;;;;4.90;1.87;;;;;;;17.32;94.84;99797.31;5038542;28;20210;-80
2023/08/27 04:56:51;;;;;;;3.60;1.47;;;;;;;17.30;94.70;99796.56;5039262;28;20211;-80
2023/08/27 04:59:17;;;;;;;1.80;1.70;;;;;;;17.29;94.94;99791.38;5036646;28;20699;-80
2023/08/27 05:01:44;;;;;;;2.53;1.60;;;;;;;17.26;95.33;99776.56;5036928;28;20233;-80
2023/08/27 05:04:12;;;;;;;4.50;1.80;;;;;;;17.30;94.69;99777.25;5036930;28;20206;-80
2023/08/27 05:06:39;;;;;;;3.63;1.73;;;;;;;17.30;95.04;99775.44;5036816;28;20207;-80
2023/08/27 05:09:06;;;;;;;4.47;1.83;;;;;;;17.26;94.10;99779.19;5034986;28;20218;-79
2023/08/27 05:11:32;;;;;;;3.40;1.80;;;;;;;17.22;94.80;99780.31;5033609;28;20217;-80
2023/08/27 05:13:59;;;;;;;1.80;1.70;;;;;;;17.23;93.07;99796.06;5034180;28;20215;-79
2023/08/27 05:16:25;;;;;;;2.00;1.90;;;;;;;17.30;93.10;99812.38;5033533;28;20211;-79
2023/08/27 05:18:52;;;;;;;3.67;1.80;;;;;;;17.36;93.51;99801.50;5034071;28;20202;-80
2023/08/27 05:21:20;;;;;;;2.50;2.20;;;;;;;17.41;92.34;99806.50;5034114;28;20234;-79
2023/08/27 05:23:47;;;;;;;1.67;1.57;;;;;;;17.43;91.39;99828.38;5033579;28;20228;-79
2023/08/27 05:26:14;;;;;;;2.07;1.90;;;;;;;17.29;86.72;99900.38;5036735;28;20293;-79
2023/08/27 05:28:41;;;;;;;2.00;1.90;;;;;;;17.40;87.02;99940.22;5038158;28;20217;-80
2023/08/27 05:31:08;;;;;;;2.07;1.40;;;;;;;17.40;87.03;99940.22;5038112;28;20218;-80
2023/08/27 05:33:34;;;;;;;2.30;1.80;;;;;;;17.50;88.16;99932.63;5045057;28;20217;-79
2023/08/27 05:36:01;;;;;;;2.30;2.10;;;;;;;17.50;89.79;99898.31;5045278;28;20224;-79
2023/08/27 05:38:29;;;;;;;3.23;1.60;;;;;;;17.56;88.08;99897.13;5044217;28;20200;-80
2023/08/27 05:40:56;;;;;;;1.97;1.87;;;;;;;17.44;88.83;99914.50;5045364;28;20261;-80
2023/08/27 05:43:23;;;;;;;2.07;1.50;;;;;;;17.47;87.25;99951.28;5047696;28;20217;-80
2023/08/27 05:45:50;;;;;;;1.97;1.87;;;;;;;17.55;87.80;99927.94;5047040;28;20204;-80
2023/08/27 05:48:16;;;;;;;4.10;1.67;;;;;;;17.58;87.03;99921.63;5048806;28;20204;-80
2023/08/27 05:50:44;;;;;;;4.30;2.37;;;;;;;17.64;87.84;99926.56;5048816;28;20192;-80
2023/08/27 05:53:12;;;;;;;2.00;1.90;;;;;;;17.66;90.65;99869.28;5045236;28;20703;-80
2023/08/27 05:55:40;;;;;;;3.23;1.90;;;;;;;17.66;91.62;99833.19;5044201;28;20276;-80
2023/08/27 05:58:06;;;;;;;4.53;2.00;;;;;;;17.70;90.76;99840.91;5043955;28;20221;-80
2023/08/27 06:00:33;;;;;;;2.07;1.87;;;;;;;17.69;89.10;99857.69;5041217;28;20230;-80
2023/08/27 06:03:00;;;;;;;1.87;1.77;;;;;;;17.72;87.90;99900.63;5042882;28;20228;-80
2023/08/27 06:05:27;;;;;;;1.83;1.63;;;;;;;17.71;86.77;99927.94;5043472;28;20200;-82
2023/08/27 06:07:53;;;;;;;2.00;1.90;;;;;;;17.72;87.11;99937.56;5045106;28;20208;-80
2023/08/27 06:10:20;;;;;;;2.20;2.00;;;;;;;17.75;89.27;99895.13;5043745;28;20211;-80
2023/08/27 06:12:48;;;;;;;2.00;1.90;;;;;;;17.76;90.72;99859.91;5043166;28;20219;-80
2023/08/27 06:15:15;;;;;;;1.93;1.80;;;;;;;17.78;91.84;99847.47;5046610;28;20221;-79
2023/08/27 06:17:41;;;;;;;3.77;1.97;;;;;;;17.76;91.29;99841.41;5044506;28;20227;-82
2023/08/27 06:20:09;;;;;;;2.60;1.63;;;;;;;17.75;93.18;99802.75;5042633;28;20687;-79
2023/08/27 06:22:35;;;;;;;2.00;1.80;;;;;;;17.75;92.34;99794.81;5044006;28;20227;-79
2023/08/27 06:25:02;;;;;;;1.97;1.87;;;;;;;17.81;90.15;99838.50;5042441;28;20209;-80
2023/08/27 06:27:28;;;;;;;1.80;1.70;;;;;;;17.79;90.12;99838.56;5041676;28;20214;-80
2023/08/27 06:29:56;;;;;;;1.70;1.60;;;;;;;17.84;89.96;99854.22;5043740;28;20195;-79
2023/08/27 06:32:23;;;;;;;1.87;1.77;;;;;;;17.91;90.28;99844.97;5043801;28;20226;-80
2023/08/27 06:34:49;;;;;;;3.87;1.93;;;;;;;17.91;87.97;99878.44;5040598;28;20206;-79
2023/08/27 06:37:16;;;;;;;3.37;1.90;;;;;;;17.92;89.10;99877.50;5043106;28;20676;-80
2023/08/27 06:39:42;;;;;;;1.80;1.47;;;;;;;17.90;90.28;99839.75;5042579;28;20754;-80
2023/08/27 06:42:09;;;;;;;2.00;1.90;;;;;;;17.86;89.18;99847.88;5041598;28;20246;-80
2023/08/27 06:44:36;;;;;;;2.53;2.00;;;;;;;17.91;90.50;99837.03;5041881;28;20223;-79
2023/08/27 06:47:04;;;;;;;3.27;2.03;;;;;;;17.93;90.03;99847.53;5042690;28;20202;-79
2023/08/27 06:49:30;;;;;;;2.00;1.60;;;;;;;17.90;89.75;99845.91;5047704;28;20585;-81
2023/08/27 06:51:57;;;;;;;1.70;1.60;;;;;;;17.97;88.59;99875.44;5047234;28;20222;-81
2023/08/27 06:54:24;;;;;;;2.13;1.90;;;;;;;18.00;89.39;99868.19;5046712;28;20200;-81
2023/08/27 06:56:51;;;;;;;2.10;1.80;;;;;;;18.04;89.92;99847.75;5046046;28;20565;-81
2023/08/27 06:59:17;;;;;;;2.43;2.03;;;;;;;18.07;91.36;99815.84;5049014;28;20203;-83
2023/08/27 07:01:45;;;;;;;1.60;1.50;;;;;;;18.12;92.15;99795.31;5048561;28;20689;-85
2023/08/27 07:04:13;;;;;;;2.10;1.90;;;;;;;18.17;90.83;99798.50;5047942;28;20201;-82
2023/08/27 07:06:39;;;;;;;1.70;1.60;;;;;;;18.23;91.50;99802.56;5045128;28;20222;-81
2023/08/27 07:09:06;;;;;;;5.60;1.77;;;;;;;18.26;92.58;99774.16;5046740;28;20210;-81
2023/08/27 07:11:34;;;;;;;2.03;1.83;;;;;;;18.31;91.05;99794.16;5045549;28;20254;-81
2023/08/27 07:14:00;;;;;;;2.97;2.10;;;;;;;18.30;88.92;99822.41;5044342;28;20214;-80
2023/08/27 07:16:27;;;;;;;1.70;1.60;;;;;;;18.39;87.81;99865.91;5039001;28;20214;-80
2023/08/27 07:18:54;;;;;;;1.70;1.60;;;;;;;18.37;83.81;99950.53;5037631;28;20591;-80
2023/08/27 07:21:22;;;;;;;2.50;2.30;;;;;;;18.41;82.71;100002.31;5037341;28;20232;-80
2023/08/27 07:23:48;;;;;;;2.13;1.90;;;;;;;18.54;84.33;99981.28;5037799;28;20207;-80
2023/08/27 07:26:15;;;;;;;2.07;1.63;;;;;;;18.61;86.87;99934.16;5047812;28;20219;-80
2023/08/27 07:28:41;;;;;;;2.07;1.87;;;;;;;18.68;88.56;99897.66;5057096;28;20209;-81
2023/08/27 07:31:08;;;;;;;2.43;1.67;;;;;;;18.72;90.76;99857.69;5056745;28;20236;-81
2023/08/27 07:33:35;;;;;;;2.00;1.77;;;;;;;18.79;91.44;99829.06;5056956;28;20225;-80
2023/08/27 07:36:01;;;;;;;2.13;1.70;;;;;;;18.78;92.88;99793.00;5056710;28;20207;-80
2023/08/27 07:38:29;;;;;;;2.30;1.90;;;;;;;18.81;91.86;99792.81;5056367;28;20214;-85
2023/08/27 07:40:56;;;;;;;1.90;1.70;;;;;;;18.91;90.85;99815.13;5041800;28;20246;-83
2023/08/27 07:43:22;;;;;;;2.90;2.03;;;;;;;18.98;93.10;99779.38;5055671;28;20309;-85
2023/08/27 07:45:49;;;;;;;4.07;1.90;;;;;;;19.04;92.50;99776.34;5053812;28;20206;-82
2023/08/27 07:48:16;;;;;;;3.23;2.03;;;;;;;19.03;86.44;99893.69;5057705;28;20210;-86
2023/08/27 07:50:42;;;;;;;3.87;2.13;;;;;;;19.11;84.65;99938.19;5057370;28;20200;-82
2023/08/27 07:53:09;;;;;;;2.80;1.63;;;;;;;19.12;81.19;100028.97;5057487;28;20234;-83
2023/08/27 07:55:37;;;;;;;2.43;1.83;;;;;;;19.30;80.00;100077.28;5060986;28;20215;-84
2023/08/27 07:58:04;;;;;;;1.67;1.50;;;;;;;19.47;83.27;100077.09;5057861;28;20211;-80
2023/08/27 08:00:30;;;;;;;1.33;0.90;;;;;;;19.63;81.86;100058.47;5057736;28;20716;-81
2023/08/27 08:02:57;;;;;;;1.00;0.90;;;;;;;19.78;80.55;100077.84;5057394;28;20229;-81
2023/08/27 08:05:23;;;;;;;3.07;1.47;;;;;;;19.92;78.54;100135.25;5057238;28;20220;-81
2023/08/27 08:07:50;;;;;;;1.17;1.13;;;;;;;20.01;77.48;100147.94;5054064;28;20667;-79
2023/08/27 08:10:17;;;;;;;1.30;1.20;;;;;;;20.11;79.29;100125.19;5055060;28;20209;-81
2023/08/27 08:12:45;;;;;;;4.60;1.30;;;;;;;20.16;77.38;100157.56;5056700;28;20229;-79
2023/08/27 08:15:12;;;;;;;1.83;1.73;;;;;;;20.17;75.99;100192.88;5056080;28;20221;-74
2023/08/27 08:17:38;;;;;;;2.23;1.13;;;;;;;20.11;74.83;100219.75;5053579;28;20224;-75
2023/08/27 08:20:06;;;;;;;1.53;0.90;;;;;;;20.11;73.52;100238.31;5053541;28;20205;-75
2023/08/27 08:22:32;;;;;;;1.20;1.10;;;;;;;20.09;73.45;100277.31;5053626;28;20232;-74
2023/08/27 08:24:59;;;;;;;3.57;1.40;;;;;;;20.16;75.85;100229.13;5054095;28;20213;-75
2023/08/27 08:27:26;;;;;;;0.80;0.80;;;;;;;20.28;77.35;100170.97;5053484;28;20217;-75
2023/08/27 08:29:55;;;;;;;5.17;1.10;;;;;;;20.09;72.50;100229.59;5053394;28;20219;-75
2023/08/27 08:32:21;;;;;;;2.47;0.97;;;;;;;20.18;71.55;100298.78;5053030;28;20241;-75
2023/08/27 08:34:48;;;;;;;1.43;1.33;;;;;;;20.37;74.85;100258.72;5053625;28;20205;-75
2023/08/27 08:37:14;;;;;;;1.00;0.93;;;;;;;20.21;70.26;100327.75;5053015;28;20213;-75
2023/08/27 08:39:41;;;;;;;1.17;1.07;;;;;;;20.33;70.94;100357.13;5052845;28;20209;-74
2023/08/27 08:42:13;;;;;;;1.67;1.27;;;;;;;20.20;70.21;100352.56;5052352;28;20231;-75
2023/08/27 08:44:46;;;;;;;1.47;1.23;;;;;;;20.29;70.99;100352.94;5053352;28;20208;-75
2023/08/27 08:47:18;;;;;;;1.20;1.10;;;;;;;20.18;69.58;100354.44;5052826;28;20216;-74
2023/08/27 08:49:45;;;;;;;1.30;1.10;;;;;;;20.32;71.45;100366.03;5052827;28;20203;-74
2023/08/27 08:52:17;;;;;;;1.43;1.13;;;;;;;20.42;73.23;100314.13;5052683;28;20255;-74
2023/08/27 08:54:45;;;;;;;1.40;1.03;;;;;;;20.40;67.92;100399.06;5052631;28;20224;-75
2023/08/27 08:57:15;;;;;;;1.63;1.10;;;;;;;20.54;71.46;100405.34;5051664;28;20205;-74
2023/08/27 08:59:42;;;;;;;1.50;0.90;;;;;;;20.56;71.35;100368.97;5042125;28;20208;-74
2023/08/27 09:02:12;;;;;;;1.67;0.80;;;;;;;20.58;71.18;100291.00;5041272;28;20232;-75
2023/08/27 09:04:41;;;;;;;1.07;0.97;;;;;;;20.55;66.12;100409.69;5043016;28;20208;-74
2023/08/27 09:07:08;;;;;;;2.00;0.80;;;;;;;20.61;76.86;100305.91;5045617;28;20208;-75
2023/08/27 09:09:35;;;;;;;1.63;1.30;;;;;;;20.62;68.03;100382.72;5052115;28;20270;-75
2023/08/27 09:12:03;;;;;;;1.57;1.07;;;;;;;20.78;67.04;100450.75;5052589;28;20235;-75
2023/08/27 09:14:31;;;;;;;1.30;1.10;;;;;;;20.85;69.16;100424.69;5052437;28;20216;-75
2023/08/27 09:16:58;;;;;;;2.97;1.13;;;;;;;20.95;67.68;100431.13;5052427;28;20208;-75
2023/08/27 09:19:24;;;;;;;3.37;1.00;;;;;;;21.00;70.07;100379.47;5052465;28;20209;-75
2023/08/27 09:21:52;;;;;;;1.30;1.17;;;;;;;20.95;68.17;100396.63;5051967;28;20233;-75
2023/08/27 09:24:41;;;;;;;1.23;1.13;;;;;;;21.16;68.51;100410.34;5052298;28;20235;-75
2023/08/27 09:27:07;;;;;;;1.87;1.30;;;;;;;21.15;66.92;100414.81;5041108;28;20205;-75
2023/08/27 09:29:34;;;;;;;2.80;1.20;;;;;;;21.21;67.25;100443.63;5042838;28;20239;-74
2023/08/27 09:32:01;;;;;;;1.13;1.03;;;;;;;21.30;66.95;100441.31;5041598;28;20242;-74
2023/08/27 09:34:27;;;;;;;3.53;1.10;;;;;;;21.41;67.32;100410.47;5040777;28;20204;-75
2023/08/27 09:36:55;;;;;;;0.97;0.90;;;;;;;21.49;68.09;100401.22;5040507;28;20198;-75
2023/08/27 09:39:22;;;;;;;1.63;1.00;;;;;;;21.44;66.71;100390.88;5041167;28;20681;-75
2023/08/27 09:41:49;;;;;;;0.80;0.80;;;;;;;21.42;63.06;100461.78;5040316;28;20245;-75
2023/08/27 09:44:15;;;;;;;0.80;0.80;;;;;;;21.45;62.74;100488.19;5041813;28;20205;-75
2023/08/27 09:46:42;;;;;;;1.77;1.07;;;;;;;21.41;61.92;100507.91;5042466;28;20205;-75
2023/08/27 09:49:10;;;;;;;4.83;1.60;;;;;;;21.53;64.27;100520.44;5047633;28;20200;-75
2023/08/27 09:51:38;;;;;;;3.20;1.87;;;;;;;21.37;61.12;100551.53;5042241;28;20194;-75
2023/08/27 09:54:17;;;;;;;1.03;0.90;;;;;;;21.40;59.50;100592.00;5041257;28;20217;-75
2023/08/27 09:56:48;;;;;;;0.90;0.70;;;;;;;21.34;58.72;100616.28;5049476;28;20197;-75
2023/08/27 09:59:16;;;;;;;1.20;1.07;;;;;;;21.56;60.33;100631.78;5051596;28;20212;-75
2023/08/27 10:01:47;;;;;;;3.00;0.97;;;;;;;21.68;62.15;100592.97;5051400;28;20742;-76
2023/08/27 10:04:14;;;;;;;2.00;1.03;;;;;;;21.77;61.48;100587.09;5051112;28;20206;-75
2023/08/27 10:06:40;;;;;;;1.00;0.90;;;;;;;21.68;60.15;100621.34;5051370;28;20209;-75
2023/08/27 10:09:07;;;;;;;1.10;0.70;;;;;;;21.70;60.19;100604.34;5051426;28;20674;-75
2023/08/27 10:11:45;;;;;;;3.33;0.87;;;;;;;21.87;61.47;100582.03;5051499;28;20221;-75
2023/08/27 10:14:14;;;;;;;1.10;0.90;;;;;;;21.88;62.06;100564.28;5051586;28;20264;-76
2023/08/27 10:16:41;;;;;;;0.83;0.80;;;;;;;21.83;59.16;100585.84;5051902;28;20226;-76
2023/08/27 10:19:09;;;;;;;1.00;1.00;;;;;;;21.91;61.36;100582.69;5051844;28;20205;-75
2023/08/27 10:21:37;;;;;;;1.23;1.07;;;;;;;21.67;60.01;100590.44;5054156;28;20709;-75
2023/08/27 10:24:06;;;;;;;1.00;1.00;;;;;;;21.96;65.59;100499.06;5058349;28;20218;-75
2023/08/27 10:26:33;;;;;;;0.90;0.90;;;;;;;21.90;60.50;100510.09;5058248;28;20621;-75
2023/08/27 10:29:04;;;;;;;1.93;0.83;;;;;;;21.99;59.15;100500.66;5058455;28;20284;-75
2023/08/27 10:31:31;;;;;;;0.80;0.80;;;;;;;21.97;57.51;100591.13;5058185;28;20219;-75
2023/08/27 10:33:57;;;;;;;1.33;0.93;;;;;;;21.96;54.83;100617.78;5058283;28;20243;-75
2023/08/27 10:36:28;;;;;;;1.23;0.67;;;;;;;22.07;55.31;100659.66;5058313;28;20299;-75
2023/08/27 10:38:56;;;;;;;0.90;0.80;;;;;;;22.18;56.91;100659.84;5058032;28;20209;-75
2023/08/27 10:41:25;;;;;;;0.80;0.80;;;;;;;22.18;57.67;100647.41;5058028;28;20236;-75
2023/08/27 10:43:52;;;;;;;0.60;0.60;;;;;;;22.19;58.04;100627.81;5058148;28;20684;-75
2023/08/27 10:46:21;;;;;;;0.60;0.60;;;;;;;22.22;57.47;100597.53;5058087;28;20219;-75
2023/08/27 10:48:52;;;;;;;0.60;0.60;;;;;;;22.38;58.62;100597.41;5058035;28;20205;-75
2023/08/27 10:51:21;;;;;;;0.70;0.70;;;;;;;22.43;58.20;100613.91;5057735;28;20220;-75
2023/08/27 10:53:57;;;;;;;0.60;0.60;;;;;;;22.50;54.75;100660.44;5058042;28;20221;-75
2023/08/27 10:56:28;;;;;;;0.50;0.50;;;;;;;21.66;58.76;100697.66;5058047;28;20212;-75
2023/08/27 10:58:58;;;;;;;1.37;0.50;;;;;;;20.91;61.38;100618.91;5058076;28;20201;-75
2023/08/27 11:01:26;;;;;;;2.93;0.50;;;;;;;20.02;64.10;100531.22;5057847;28;20227;-75
2023/08/27 11:04:01;;;;;;;0.40;0.40;;;;;;;19.57;67.33;100434.84;5057814;28;20217;-75
2023/08/27 11:06:43;;;;;;;0.90;0.70;;;;;;;19.02;70.74;100323.19;5057898;28;20682;-75
2023/08/27 11:09:21;;;;;;;0.60;0.60;;;;;;;19.00;72.50;100239.56;5058156;28;20208;-75
2023/08/27 11:11:53;;;;;;;0.50;0.50;;;;;;;18.98;73.37;100159.44;5057687;28;20718;-74
2023/08/27 11:14:20;;;;;;;0.87;0.70;;;;;;;18.81;76.58;100081.06;5057729;28;20221;-74
2023/08/27 11:16:50;;;;;;;1.57;1.00;;;;;;;18.50;80.77;99958.59;5058000;28;20207;-74
2023/08/27 11:19:26;;;;;;;1.07;0.87;;;;;;;18.25;83.37;99891.38;5058061;28;20222;-74
2023/08/27 11:21:53;;;;;;;0.77;0.77;;;;;;;18.50;85.92;99825.63;5057922;28;20592;-74
2023/08/27 11:24:23;;;;;;;0.80;0.70;;;;;;;18.74;87.14;99765.06;5057817;28;20670;-74
2023/08/27 11:26:50;;;;;;;1.00;1.00;;;;;;;18.50;91.51;99696.94;5057584;28;20202;-75
2023/08/27 11:29:17;;;;;;;2.93;0.83;;;;;;;18.72;92.60;99669.13;5057586;28;20668;-75
2023/08/27 11:31:47;;;;;;;3.07;1.20;;;;;;;18.75;92.99;99658.34;5057629;28;20224;-75
2023/08/27 11:34:16;;;;;;;2.30;1.40;;;;;;;18.55;93.41;99646.41;5054156;28;20208;-75